Mardin, Turkey

8:52 PM EET on November 26, 2014 (GMT +0200)
Diyarbakir | Change Station
CLOSE
Current Station
Airport
Location: Diyarbakir,
Elevation: 2221 ft
Nearby Weather Stations

Elev 2221 ft 37.88 °N, 40.18 °E | Updated 32 minutes ago

Overcast
Overcast
46 °F
Feels Like 44 °F
N
5
Wind Variable Wind from East

Today
High -- | Low -- °F
--% Chance of Precip.
Yesterday
High -- | Low -- °F
Precip. -- in
6:07 AM 4:01 PM
Waxing Crescent, 21% visible
Pressure 29.86 in
Visibility 2.5 miles
Clouds Few 1500 ft
Mostly Cloudy 3500 ft
Overcast 9000 ft
Windchill 44 °F
Dew Point 45 °F
Humidity 93%
Rainfall 0.00 in
Snow Depth Not available.
UV 0 out of 12
Pollen Not available.
Air Quality Not available.
Flu Activity Not available.
METAR LTCC 261820Z 10004KT 070V130 4000 BR FEW015 BKN035 OVC090 08/07 Q1011 TEMPO 1200 BCFG

More Conditions Fewer Conditions

Pressure 29.86 in
Visibility 2.5 miles
Clouds Few 1500 ft
Mostly Cloudy 3500 ft
Overcast 9000 ft
Windchill 44 °F
Dew Point 45 °F
Humidity 93%
Rainfall 0.00 in
Snow Depth Not available.
UV 0 out of 12
Pollen Not available.
Air Quality Not available.
Flu Activity Not available.
METAR LTCC 261820Z 10004KT 070V130 4000 BR FEW015 BKN035 OVC090 08/07 Q1011 TEMPO 1200 BCFG

More Conditions Fewer Conditions

10-Day Weather Forecast

Almanac

Astronomy

Nov. 26, 2014 Rise Set
Actual Time
Civil Twilight
Nautical Twilight
Astronomical Twilight
Moon
Length of Visible Light
Length of Day
Tomorrow will be .
, % of the Moon is Illuminated

Today's Extremes

Country Highs Country Lows

Community

WunderPhotos

Upload Photos

1,773,827 photos uploaded!

WunderBlogs® & News

Nearby

Air Quality

  Air Quality AQ Index Pollutant
Not available.

Snow Depth

Station Depth Elevation

Earthquake Activity

City Distance Mag. Time & Date
Minimum magnitude displayed is 2.5.

Coastal Water Temperatures

Place Temperature

Nearby Weather Stations